LiveATC.Net - Listen to live air traffic control over the Internet! Contact LiveATC.net for advertising information


ICAO: KLAF  IATA: LAF   Airport: Purdue University Airport
City: Lafayette   State/Province: Indiana
Country: United States   Continent: North America
KLAF METAR Weather: KLAF 280654Z AUTO 03004KT 10SM CLR 18/16 A3009 RMK AO2 SLP186 T01830161 $
KLAF Flight Activity (FlightAware)
KLAF Airport Info   (AirNav) (iFlightPlanner)
KLAF Gnd/Twr/App
Feed Status: DOWN
Last heard on: 2014-05-08 16:40:03 (111 days 14 hours 27 minutes ago)
KLAF Gnd/Twr/App Audio Archives
FacilityFrequency
Emergency/Guard121.500
Grissom Approach/Chicago Center123.850
Lafayette Ground121.900
Lafayette Tower119.600


NOTICE

Unauthorized use prohibited. See LiveATC.net Terms of Service


Find LiveATC Audio Streams


Airport/ARTCC Code

Frequency
(e.g., 124.400, 128.75)
Site-wide search

Browse LiveATC Feeds
LiveATC Coverage Map
Top 50 LiveATC Feeds
Bad Weather Areas

LiveATC FAQ
Offer a LiveATC Feed
Contact LiveATC.net
Press Inquiries

LiveATC on iPhone
LiveATC on Android

LiveATC Mobile
(Mobile browser)

ATC Audio Archives
Interesting Recordings

LiveATC Forums


Home Page
About LiveATC.net
Make a Donation
LiveATC Bookstore

Terms of Use
Privacy Policy

ATC/Radar Sites
U.S. ARTCC Freqs
Canadian Air Freqs

AIRMETs/SIGMETs

FAA Airport Status
Nat'l Airspace Status
Arrival Demand Charts


Server Software By:
Icecast.org
Liquidsoap

Please make a donation to help us keep growing!